Time;durP1;ratioP1;P1;durP2;ratioP2;P2;SDS_P1;SDS_P2;PMS_P1;PMS_P2;Temp;Humidity;BMP_temperature;BMP_pressure;BME280_temperature;BME280_humidity;BME280_pressure;Samples;Min_cycle;Max_cycle;Signal;HPM_P1;HPM_P2
2022/07/28 00:01:45;;;;;;;2.03;1.00;;;16.50;88.40;;;16.89;74.60;101229.91;5146495;28;20050;-71
2022/07/28 00:04:17;;;;;;;1.60;1.00;;;16.50;88.50;;;16.86;75.04;101229.84;5147814;28;20049;-71
2022/07/28 00:06:49;;;;;;;1.63;0.82;;;16.50;89.70;;;16.87;75.01;101233.34;5147854;28;20077;-72
2022/07/28 00:09:21;;;;;;;1.30;1.02;;;16.50;89.20;;;16.88;74.23;101230.75;5147282;28;20130;-72
2022/07/28 00:11:54;;;;;;;1.30;0.77;;;16.50;88.60;;;16.90;73.17;101229.03;5146157;28;20074;-71
2022/07/28 00:14:26;;;;;;;1.77;0.82;;;16.50;87.90;;;16.93;72.17;101229.06;5147347;28;20684;-71
2022/07/28 00:17:00;;;;;;;1.27;0.80;;;16.60;87.80;;;16.93;71.78;101225.56;5147695;28;20122;-72
2022/07/28 00:19:32;;;;;;;1.20;0.95;;;16.60;86.90;;;16.91;71.76;101230.81;5147355;28;20101;-71
2022/07/28 00:22:05;;;;;;;1.85;0.80;;;16.50;86.90;;;16.91;71.04;101232.56;5147363;28;20611;-70
2022/07/28 00:24:37;;;;;;;1.55;1.00;;;16.60;86.50;;;16.92;70.88;101237.84;5147314;28;20078;-72
2022/07/28 00:27:09;;;;;;;1.30;0.80;;;16.50;86.20;;;16.91;71.52;101233.44;5147465;28;20051;-70
2022/07/28 00:29:41;;;;;;;2.30;0.77;;;16.50;86.80;;;16.91;71.89;101220.28;5147336;28;20057;-71
2022/07/28 00:32:15;;;;;;;1.73;0.80;;;16.50;87.80;;;16.93;71.79;101228.19;5147317;28;20518;-71
2022/07/28 00:34:49;;;;;;;0.85;0.75;;;16.50;87.00;;;16.90;71.59;101223.78;5146127;28;20066;-71
2022/07/28 00:37:21;;;;;;;1.05;0.70;;;16.60;87.10;;;16.87;72.72;101217.56;5145931;28;20495;-72
2022/07/28 00:39:54;;;;;;;2.33;0.93;;;16.50;87.90;;;16.84;73.48;101220.16;5146890;28;20053;-72
2022/07/28 00:42:26;;;;;;;1.40;0.80;;;16.50;88.50;;;16.81;73.34;101229.75;5147107;28;20496;-71
2022/07/28 00:44:58;;;;;;;2.10;0.80;;;16.50;88.60;;;16.81;72.97;101224.50;5147278;28;20046;-71
2022/07/28 00:47:31;;;;;;;1.48;0.82;;;16.50;88.40;;;16.80;72.64;101224.47;5147080;28;20080;-71
2022/07/28 00:50:05;;;;;;;1.20;1.10;;;16.40;88.20;;;16.77;72.89;101217.44;5146653;28;20396;-71
2022/07/28 00:52:38;;;;;;;0.90;0.70;;;16.40;88.40;;;16.76;74.13;101217.41;5146970;28;20053;-71
2022/07/28 00:55:11;;;;;;;1.85;0.90;;;16.40;89.50;;;16.73;74.66;101206.81;5146861;28;20061;-71
2022/07/28 00:57:43;;;;;;;1.30;0.60;;;16.40;90.00;;;16.69;75.60;101207.56;5146916;28;20054;-72
2022/07/28 01:00:15;;;;;;;1.77;0.98;;;16.30;90.30;;;16.66;76.42;101204.91;5146728;28;20126;-71
2022/07/28 01:02:50;;;;;;;1.23;0.80;;;16.30;90.70;;;16.64;76.55;101211.91;5146495;28;20129;-71
2022/07/28 01:05:22;;;;;;;0.90;0.90;;;16.30;90.90;;;16.62;76.39;101216.22;5146685;28;20047;-71
2022/07/28 01:08:01;;;;;;;1.90;1.20;;;16.30;90.90;;;16.59;76.02;101208.31;5145129;28;20138;-71
2022/07/28 01:10:49;;;;;;;2.30;0.85;;;16.30;90.80;;;16.55;75.38;101213.50;5146371;28;20046;-71
2022/07/28 01:13:30;;;;;;;1.00;0.80;;;16.20;90.60;;;16.52;75.57;101205.56;5146161;28;20547;-71
2022/07/28 01:16:04;;;;;;;1.83;0.90;;;16.20;90.70;;;16.49;76.06;101208.13;5146605;28;20046;-71
2022/07/28 01:18:42;;;;;;;;;;;16.20;91.00;;;16.45;76.33;101219.47;5146475;28;20700;-70
2022/07/28 01:21:22;;;;;;;1.05;0.95;;;16.10;91.10;;;16.43;76.60;101231.72;5146228;28;20398;-71
2022/07/28 01:24:14;;;;;;;2.40;0.90;;;16.10;91.20;;;16.38;77.43;101225.50;5144970;28;20146;-71
2022/07/28 01:26:58;;;;;;;1.95;0.90;;;16.10;91.60;;;16.35;78.07;101214.00;5145046;28;20055;-71
2022/07/28 01:30:04;;;;;;;1.63;1.00;;;16.00;91.80;;;16.29;78.36;101227.94;5145731;28;20058;-70
2022/07/28 01:32:43;;;;;;;1.95;1.13;;;16.00;92.10;;;16.23;78.52;101222.56;5146064;28;20522;-71
2022/07/28 01:35:21;;;;;;;1.40;0.82;;;15.90;92.20;;;16.19;79.00;101215.50;5146332;28;20064;-71
2022/07/28 01:37:58;;;;;;;1.40;1.08;;;15.90;92.40;;;16.14;79.45;101217.16;5144745;28;20574;-71
2022/07/28 01:40:35;;;;;;;2.05;0.93;;;15.80;92.70;;;16.11;80.07;101209.22;5144572;28;20050;-71
2022/07/28 01:43:12;;;;;;;2.05;0.93;;;15.80;92.90;;;16.08;80.53;101209.13;5145962;28;20043;-71
2022/07/28 01:45:46;;;;;;;2.05;0.82;;;15.80;93.20;;;16.05;80.69;101209.09;5145818;28;20043;-71
2022/07/28 01:48:21;;;;;;;2.08;0.80;;;15.80;93.40;;;16.02;80.70;101200.25;5145855;28;20046;-72
2022/07/28 01:50:55;;;;;;;1.40;1.05;;;15.70;93.50;;;15.99;80.67;101197.59;5144453;28;20130;-71
2022/07/28 01:53:31;;;;;;;1.40;0.90;;;15.70;93.50;;;15.98;80.61;101194.94;5145753;28;20050;-72
2022/07/28 01:56:05;;;;;;;1.98;1.33;;;15.70;93.60;;;15.97;80.33;101187.88;5145580;28;20122;-71
2022/07/28 01:58:38;;;;;;;0.98;0.80;;;15.70;93.50;;;15.93;80.55;101189.59;5145627;28;20101;-71
2022/07/28 02:01:13;;;;;;;1.52;0.90;;;15.60;93.70;;;15.92;80.86;101190.44;5144061;28;20051;-71
2022/07/28 02:03:47;;;;;;;0.98;0.80;;;15.60;93.90;;;15.90;81.11;101188.63;5145587;28;20057;-71
2022/07/28 02:06:22;;;;;;;1.55;1.00;;;15.60;94.00;;;15.86;81.77;101185.06;5145592;28;20122;-71
2022/07/28 02:08:56;;;;;;;1.48;0.88;;;15.60;94.30;;;15.86;81.73;101185.06;5145322;28;20047;-71
2022/07/28 02:11:39;;;;;;;2.10;0.82;;;15.60;94.40;;;15.86;80.79;101184.19;5145135;28;20070;-71
2022/07/28 02:14:15;;;;;;;1.13;0.80;;;15.60;94.10;;;15.87;79.99;101186.84;5145420;28;20051;-71
2022/07/28 02:16:50;;;;;;;1.65;0.93;;;15.60;93.80;;;15.87;80.11;101181.59;5145347;28;20522;-71
2022/07/28 02:19:24;;;;;;;1.20;0.80;;;15.60;93.90;;;15.86;80.09;101184.19;5145206;28;20061;-71
2022/07/28 02:21:56;;;;;;;2.17;1.10;;;15.50;94.00;;;15.84;79.83;101176.25;5145224;28;20043;-71
2022/07/28 02:24:30;;;;;;;2.28;0.90;;;15.50;93.90;;;15.82;79.84;101180.59;5145108;28;20048;-71
2022/07/28 02:27:08;;;;;;;1.55;1.00;;;15.50;93.90;;;15.79;79.03;101166.53;5145276;28;20686;-71
2022/07/28 02:29:56;;;;;;;1.08;0.90;;;15.50;93.70;;;15.76;79.27;101177.84;5145032;28;20129;-72
2022/07/28 02:32:32;;;;;;;;;;;15.50;94.00;;;15.70;79.19;101167.22;5145519;28;20043;-70
2022/07/28 02:35:11;;;;;;;1.67;1.42;;;15.40;93.80;;;15.68;79.13;101168.94;5145332;28;20294;-71
2022/07/28 02:37:52;;;;;;;2.13;0.90;;;15.40;93.80;;;15.64;79.40;101157.47;5145016;28;20043;-72
2022/07/28 02:40:28;;;;;;;3.05;1.55;;;15.30;93.80;;;15.61;79.40;101156.50;5145317;28;20391;-71
2022/07/28 02:43:02;;;;;;;1.55;0.85;;;15.40;93.90;;;15.59;79.35;101152.97;5144850;28;20097;-70
2022/07/28 02:45:38;;;;;;;1.13;0.90;;;15.30;93.90;;;15.58;79.33;101152.03;5145213;28;20050;-71
2022/07/28 02:48:15;;;;;;;2.85;1.00;;;15.30;94.00;;;15.57;80.01;101152.03;5144869;28;20051;-70
2022/07/28 02:50:51;;;;;;;1.40;1.02;;;15.30;94.10;;;15.53;80.08;101150.22;5143938;28;20046;-71
2022/07/28 02:53:24;;;;;;;3.33;0.95;;;15.20;94.30;;;15.51;80.29;101149.28;5144855;28;20057;-71
2022/07/28 02:55:57;;;;;;;1.00;0.90;;;15.20;94.30;;;15.50;80.42;101158.00;5145053;28;20129;-70
2022/07/28 02:58:30;;;;;;;1.60;1.10;;;15.20;94.40;;;15.48;80.60;101156.25;5144629;28;20053;-72
2022/07/28 03:01:03;;;;;;;1.83;1.17;;;15.20;94.60;;;15.47;80.83;101153.59;5144771;28;20133;-71
2022/07/28 03:03:36;;;;;;;1.08;0.98;;;15.20;94.70;;;15.46;81.19;101157.09;5144627;28;20102;-71
2022/07/28 03:06:10;;;;;;;1.13;0.80;;;15.20;94.80;;;15.45;81.57;101156.19;5145129;28;20046;-71
2022/07/28 03:08:42;;;;;;;1.83;0.90;;;15.20;95.00;;;15.43;82.00;101163.13;5144575;28;20070;-72
2022/07/28 03:11:14;;;;;;;1.20;0.75;;;15.10;95.20;;;15.41;82.58;101159.59;5144783;28;20043;-70
2022/07/28 03:13:46;;;;;;;1.60;1.08;;;15.10;95.40;;;15.38;82.70;101164.78;5143659;28;20492;-71
2022/07/28 03:16:19;;;;;;;1.77;0.80;;;15.10;95.60;;;15.32;82.69;101164.69;5143713;28;20081;-71
2022/07/28 03:18:51;;;;;;;0.82;0.82;;;15.00;95.60;;;15.27;83.26;101166.31;5144479;28;20049;-71
2022/07/28 03:21:24;;;;;;;1.38;0.90;;;15.00;96.10;;;15.22;83.48;101170.56;5144478;28;20519;-71
2022/07/28 03:23:57;;;;;;;1.35;0.90;;;15.00;96.00;;;15.18;83.87;101173.97;5144668;28;20042;-71
2022/07/28 03:26:40;;;;;;;2.13;1.10;;;14.90;96.50;;;15.13;84.38;101173.00;5144731;28;20047;-71
2022/07/28 03:29:12;;;;;;;2.42;1.00;;;14.90;96.40;;;15.09;84.67;101164.16;5144370;28;20515;-72
2022/07/28 03:31:48;;;;;;;1.52;1.00;;;14.80;96.60;;;15.06;84.98;101171.06;5144441;28;20050;-71
2022/07/28 03:34:20;;;;;;;1.55;1.30;;;14.80;96.80;;;15.04;84.90;101175.41;5144609;28;20435;-72
2022/07/28 03:37:09;;;;;;;2.00;1.00;;;14.80;96.90;;;15.00;84.80;101170.97;5148340;28;20133;-71
2022/07/28 03:39:47;;;;;;;1.80;1.42;;;14.70;96.90;;;14.97;85.05;101166.50;5146694;28;20397;-71
2022/07/28 03:42:21;;;;;;;2.17;1.40;;;14.70;97.10;;;14.97;85.08;101163.88;5148092;28;20039;-73
2022/07/28 03:44:54;;;;;;;1.60;1.15;;;14.70;97.10;;;14.97;85.39;101170.88;5148086;28;20117;-70
2022/07/28 03:47:26;;;;;;;2.17;1.20;;;14.70;97.30;;;14.95;85.35;101168.22;5148130;28;20057;-71
2022/07/28 03:49:58;;;;;;;2.22;1.20;;;14.70;97.40;;;14.95;85.26;101172.59;5147742;28;20050;-71
2022/07/28 03:52:32;;;;;;;1.60;0.90;;;14.70;97.40;;;14.91;85.84;101167.25;5147821;28;20109;-71
2022/07/28 03:55:05;;;;;;;1.88;0.95;;;14.70;97.60;;;14.89;85.82;101171.59;5147401;28;20057;-72
2022/07/28 03:57:38;;;;;;;1.65;1.13;;;14.60;97.70;;;14.87;86.42;101170.66;5147590;28;20066;-71
2022/07/28 04:00:11;;;;;;;4.22;1.20;;;14.60;97.90;;;14.88;87.07;101171.56;5147485;28;20112;-71
2022/07/28 04:02:47;;;;;;;2.00;1.00;;;14.60;98.20;;;14.88;87.29;101166.31;5146210;28;20047;-71
2022/07/28 04:05:20;;;;;;;2.58;1.05;;;14.60;98.40;;;14.88;87.54;101171.56;5147303;28;20403;-71
2022/07/28 04:07:53;;;;;;;2.42;1.17;;;14.60;98.50;;;14.87;87.38;101170.66;5146333;28;20143;-71
2022/07/28 04:10:26;;;;;;;1.90;1.30;;;14.60;98.60;;;14.87;87.75;101164.53;5147389;28;20047;-71
2022/07/28 04:12:59;;;;;;;1.67;1.30;;;14.60;98.70;;;14.89;88.01;101158.47;5147392;28;20411;-72
2022/07/28 04:15:32;;;;;;;3.13;1.30;;;14.60;98.80;;;14.90;87.68;101149.72;5441675;23;20124;-69
2022/07/28 04:18:04;;;;;;;2.05;1.30;;;14.60;98.80;;;14.93;86.89;101154.16;5207908;28;20492;-69
2022/07/28 04:20:36;;;;;;;1.20;1.10;;;14.70;98.60;;;14.97;86.58;101144.63;5207734;28;20044;-69
2022/07/28 04:23:10;;;;;;;1.70;1.15;;;14.70;98.50;;;15.03;86.15;101144.75;5188730;28;20052;-69
2022/07/28 04:25:42;;;;;;;2.03;1.00;;;14.70;98.40;;;15.07;86.25;101147.50;5187226;28;20056;-69
2022/07/28 04:28:15;;;;;;;1.70;1.30;;;14.80;98.40;;;15.11;86.60;101158.94;5187166;28;20045;-68
2022/07/28 04:30:47;;;;;;;3.65;1.30;;;14.80;98.60;;;15.14;86.79;101153.78;5187054;28;20053;-70
2022/07/28 04:33:19;;;;;;;1.10;0.95;;;14.90;98.70;;;15.15;86.68;101150.28;5186960;28;20045;-68
2022/07/28 04:35:52;;;;;;;1.73;1.27;;;14.90;98.70;;;15.17;86.96;101148.56;5187144;28;20224;-68
2022/07/28 04:38:25;;;;;;;1.52;1.00;;;14.90;98.70;;;15.17;87.07;101143.31;5186876;28;20045;-70
2022/07/28 04:40:58;;;;;;;1.65;1.20;;;14.90;98.80;;;15.16;87.51;101152.06;5186807;28;20050;-70
2022/07/28 04:43:30;;;;;;;1.75;1.33;;;14.90;98.90;;;15.14;87.73;101148.50;5186891;28;20076;-70
2022/07/28 04:46:02;;;;;;;2.10;1.20;;;14.90;99.10;;;15.15;87.98;101151.16;5184644;28;20045;-70
2022/07/28 04:48:34;;;;;;;2.05;1.10;;;14.90;99.20;;;15.18;87.99;101158.22;5186411;28;20116;-70
2022/07/28 04:51:06;;;;;;;2.03;1.35;;;14.90;99.20;;;15.22;88.25;101153.94;5186426;28;20283;-70
2022/07/28 04:53:40;;;;;;;1.30;1.20;;;14.90;99.30;;;15.24;88.24;101160.97;5186771;28;20067;-69
2022/07/28 04:56:12;;;;;;;2.85;1.40;;;14.90;99.30;;;15.26;88.58;101164.53;5201694;28;20049;-69
2022/07/28 04:58:44;;;;;;;2.03;1.80;;;15.00;99.50;;;15.28;88.46;101164.56;5184154;28;20505;-69
2022/07/28 05:01:16;;;;;;;1.75;1.27;;;15.00;99.60;;;15.39;89.54;101168.31;5169331;28;20048;-68
2022/07/28 05:03:49;;;;;;;4.07;1.42;;;15.00;99.90;;;15.57;89.96;101165.16;5185947;28;20451;-68
2022/07/28 05:06:21;;;;;;;2.88;1.48;;;15.20;99.90;;;15.70;88.81;101167.22;5186234;28;20080;-68
2022/07/28 05:08:54;;;;;;;4.45;1.60;;;15.40;99.80;;;15.77;88.23;101163.84;5174410;28;20056;-71
2022/07/28 05:11:26;;;;;;;2.08;1.55;;;15.40;99.60;;;15.82;88.44;101170.09;5178793;28;20439;-69
2022/07/28 05:13:59;;;;;;;2.78;1.50;;;15.40;99.60;;;15.87;88.48;101167.56;5184928;28;20402;-70
2022/07/28 05:16:31;;;;;;;2.28;1.35;;;15.50;99.60;;;15.93;87.61;101168.56;5186359;28;20046;-68
2022/07/28 05:19:03;;;;;;;3.22;1.60;;;15.60;99.40;;;16.04;86.88;101167.84;5185963;28;20116;-68
2022/07/28 05:21:35;;;;;;;2.75;1.52;;;15.70;99.10;;;16.11;85.88;101162.75;5184521;28;20050;-68
2022/07/28 05:24:09;;;;;;;1.85;1.17;;;15.80;98.80;;;16.18;85.57;101145.34;5185968;28;20045;-69
2022/07/28 05:26:41;;;;;;;3.42;1.55;;;15.80;98.60;;;16.25;84.94;101153.38;5185789;28;20128;-71
2022/07/28 05:29:14;;;;;;;3.05;1.90;;;15.90;98.40;;;16.35;84.33;101153.50;5185932;28;20406;-70
2022/07/28 05:31:46;;;;;;;2.15;1.63;;;16.00;98.20;;;16.41;83.73;101149.22;5185742;28;20455;-70
2022/07/28 05:34:18;;;;;;;2.75;1.17;;;16.00;98.00;;;16.45;83.03;101145.81;5182714;28;20516;-69
2022/07/28 05:36:50;;;;;;;2.88;1.60;;;16.10;97.70;;;16.47;81.88;101144.06;5175705;28;20042;-68
2022/07/28 05:39:24;;;;;;;2.15;1.20;;;16.10;97.20;;;16.50;80.87;101146.78;5171828;28;20136;-69
2022/07/28 05:41:56;;;;;;;2.83;1.50;;;16.20;96.90;;;16.52;80.34;101155.56;5179081;28;20079;-69
2022/07/28 05:44:28;;;;;;;1.95;1.10;;;16.20;96.60;;;16.55;79.99;101147.69;5173068;28;20045;-70
2022/07/28 05:47:00;;;;;;;3.47;1.23;;;16.20;96.40;;;16.58;80.04;101152.16;5181083;28;20069;-68
2022/07/28 05:49:33;;;;;;;2.53;1.20;;;16.20;96.40;;;16.62;79.88;101148.69;5185610;28;20041;-69
2022/07/28 05:52:05;;;;;;;6.15;1.30;;;16.20;96.30;;;16.65;79.50;101145.25;5185251;28;20045;-69
2022/07/28 05:54:39;;;;;;;1.58;1.08;;;16.30;96.10;;;16.69;79.92;101149.66;5185533;28;20125;-69
2022/07/28 05:57:12;;;;;;;2.60;1.50;;;16.30;96.20;;;16.73;80.02;101147.16;5200388;28;20073;-69
2022/07/28 05:59:44;;;;;;;2.15;1.38;;;16.40;96.20;;;16.85;79.96;101140.31;5185231;28;20050;-67
2022/07/28 06:02:16;;;;;;;3.33;1.40;;;16.50;96.20;;;17.02;79.81;101154.63;5184941;28;20128;-68
2022/07/28 06:04:48;;;;;;;3.83;1.70;;;16.60;96.20;;;17.37;79.01;101152.44;5185018;28;20069;-68
2022/07/28 06:07:20;;;;;;;4.38;1.80;;;16.90;96.00;;;17.87;77.04;101145.16;5180245;28;20128;-68
2022/07/28 06:09:54;;;;;;;4.43;1.67;;;17.30;95.40;;;18.42;74.17;101150.06;5184768;28;20133;-67
2022/07/28 06:12:26;;;;;;;3.08;1.55;;;17.70;94.30;;;18.83;72.06;101152.16;5164701;28;20052;-67
2022/07/28 06:15:01;;;;;;;2.53;1.30;;;18.10;93.30;;;19.35;70.05;101153.31;5164844;28;20042;-68
2022/07/28 06:17:33;;;;;;;4.45;1.67;;;18.60;92.50;;;19.91;68.35;101138.56;5164783;28;20077;-67
2022/07/28 06:20:06;;;;;;;4.82;1.63;;;19.10;91.70;;;20.42;65.98;101148.34;5164686;28;20121;-67
2022/07/28 06:22:43;;;;;;;3.40;1.45;;;19.60;90.50;;;20.90;63.61;101146.53;5164530;28;20050;-68
2022/07/28 06:25:19;;;;;;;2.50;1.58;;;20.00;88.40;;;21.26;62.04;101150.88;5179952;28;20129;-67
2022/07/28 06:27:56;;;;;;;2.45;1.58;;;20.40;86.20;;;21.40;62.56;101148.19;5164752;28;20125;-68
2022/07/28 06:30:29;;;;;;;4.93;1.48;;;20.60;86.10;;;21.64;61.51;101147.19;5164431;28;20495;-68
2022/07/28 06:33:04;;;;;;;3.03;1.20;;;20.80;84.80;;;21.88;60.91;101140.88;5164348;28;20046;-67
2022/07/28 06:35:36;;;;;;;3.45;1.40;;;21.00;83.90;;;22.13;60.20;101152.25;5166905;28;20050;-67
2022/07/28 06:38:09;;;;;;;3.22;1.38;;;21.30;82.90;;;22.50;57.54;101151.97;5184680;28;20049;-67
2022/07/28 06:40:43;;;;;;;2.63;1.20;;;21.60;79.70;;;22.84;56.77;101155.19;5184140;28;20124;-70
2022/07/28 06:43:15;;;;;;;5.38;1.20;;;21.90;78.60;;;23.05;56.17;101159.44;5171581;28;20109;-63
2022/07/28 06:45:47;;;;;;;6.63;1.15;;;22.10;77.40;;;23.11;55.17;101151.38;5173138;28;20521;-64
2022/07/28 06:48:19;;;;;;;4.20;1.23;;;22.20;76.10;;;23.23;55.10;101161.88;5173215;28;20142;-64
2022/07/28 06:50:51;;;;;;;3.53;1.13;;;22.40;75.30;;;23.46;53.88;101149.16;5181794;28;20046;-64
2022/07/28 06:53:23;;;;;;;2.03;1.08;;;22.60;73.50;;;23.73;53.92;101155.06;5175322;28;20058;-64
2022/07/28 06:55:57;;;;;;;3.55;1.40;;;22.80;73.40;;;24.06;52.95;101154.59;5174327;28;20125;-64
2022/07/28 06:58:29;;;;;;;1.90;0.80;;;23.10;72.50;;;24.31;52.33;101157.72;5173471;28;20045;-65
2022/07/28 07:01:06;;;;;;;2.05;0.80;;;23.30;71.10;;;24.58;52.09;101158.22;5178641;28;20482;-64
2022/07/28 07:03:38;;;;;;;3.30;0.90;;;23.60;70.70;;;24.72;50.73;101158.00;5173729;28;20074;-64
2022/07/28 07:06:10;;;;;;;3.90;1.20;;;23.80;68.90;;;24.74;50.45;101157.06;5173727;28;20586;-64
2022/07/28 07:08:42;;;;;;;1.60;0.85;;;23.90;68.10;;;24.77;50.98;101161.44;5180176;28;20053;-64
2022/07/28 07:11:16;;;;;;;1.52;0.90;;;23.90;68.40;;;24.93;51.12;101162.06;5178955;28;20049;-64
2022/07/28 07:13:48;;;;;;;6.10;1.20;;;24.00;68.40;;;25.05;50.77;101165.41;5177150;28;20347;-64
2022/07/28 07:16:21;;;;;;;2.92;0.93;;;24.10;68.00;;;25.11;50.47;101165.28;5192615;28;20156;-64
2022/07/28 07:18:53;;;;;;;3.35;0.90;;;24.20;67.70;;;25.20;49.46;101161.56;5179718;28;20038;-64
2022/07/28 07:21:25;;;;;;;2.92;1.00;;;24.30;66.50;;;25.29;49.25;101160.47;5176837;28;20078;-64
2022/07/28 07:23:57;;;;;;;4.88;0.90;;;24.30;65.90;;;25.46;49.03;101155.69;5170026;28;20042;-64
2022/07/28 07:26:31;;;;;;;1.48;0.75;;;24.50;66.00;;;25.51;49.02;101161.81;5167902;28;20054;-64
2022/07/28 07:29:03;;;;;;;2.13;1.10;;;24.60;65.40;;;25.65;49.49;101161.50;5167923;28;20050;-63
2022/07/28 07:31:35;;;;;;;4.03;0.88;;;24.70;65.70;;;25.83;48.71;101157.59;5167629;28;20133;-63
2022/07/28 07:34:08;;;;;;;1.83;0.90;;;24.80;65.00;;;25.97;48.60;101147.47;5182563;28;20060;-63
2022/07/28 07:36:40;;;;;;;1.48;0.77;;;24.90;64.90;;;26.08;48.61;101141.84;5187463;28;20050;-63
2022/07/28 07:39:12;;;;;;;2.15;0.82;;;25.10;64.70;;;26.15;48.42;101147.03;5186751;28;20046;-63
2022/07/28 07:41:45;;;;;;;3.55;1.10;;;25.10;64.30;;;26.20;48.73;101142.44;5182220;28;20069;-64
2022/07/28 07:44:18;;;;;;;2.00;0.88;;;25.20;64.30;;;26.13;49.31;101142.63;5130335;28;20044;-62
2022/07/28 07:46:50;;;;;;;0.90;0.70;;;25.10;65.00;;;25.98;49.23;101130.53;5186987;28;20052;-69
2022/07/28 07:49:22;;;;;;;3.25;0.90;;;25.00;64.80;;;25.71;49.53;101132.88;5208918;28;20567;-70
2022/07/28 07:51:54;;;;;;;1.67;0.77;;;24.90;64.70;;;25.63;49.96;101133.97;5207606;28;20597;-70
2022/07/28 07:54:26;;;;;;;2.83;0.80;;;24.80;65.40;;;25.58;50.11;101130.53;5208935;28;20069;-70
2022/07/28 07:57:00;;;;;;;2.05;0.80;;;24.70;65.60;;;25.40;50.06;101134.47;5199103;28;20156;-68
2022/07/28 07:59:32;;;;;;;1.77;1.25;;;24.50;65.50;;;25.31;51.18;101129.34;5207444;28;20475;-68
2022/07/28 08:02:05;;;;;;;2.97;0.90;;;24.40;66.30;;;25.38;51.09;101128.28;5207167;28;20115;-68
2022/07/28 08:04:37;;;;;;;1.40;0.60;;;24.30;66.40;;;25.48;50.58;101129.84;5208502;28;20046;-68
2022/07/28 08:07:09;;;;;;;1.60;0.70;;;24.30;66.10;;;25.67;50.27;101117.84;5208424;28;20048;-69
2022/07/28 08:09:41;;;;;;;3.00;0.90;;;24.40;66.30;;;25.91;49.73;101123.56;5207863;28;20497;-69
2022/07/28 08:12:15;;;;;;;2.75;0.70;;;24.50;65.90;;;26.18;48.81;101122.91;5206998;28;20427;-68
2022/07/28 08:14:47;;;;;;;1.90;0.90;;;24.70;65.40;;;26.37;48.26;101119.78;5208821;28;20055;-70
2022/07/28 08:17:19;;;;;;;0.73;0.70;;;24.70;64.70;;;26.65;47.71;101123.53;5208406;28;20537;-71
2022/07/28 08:19:52;;;;;;;0.75;0.65;;;24.80;64.50;;;27.18;47.23;101115.84;5208283;28;20038;-70
2022/07/28 08:22:24;;;;;;;1.83;0.95;;;25.10;65.20;;;27.81;46.88;101108.63;5207892;28;20433;-71
2022/07/28 08:24:59;;;;;;;2.78;0.68;;;25.40;64.40;;;28.48;45.34;101110.91;5208262;28;20120;-67
2022/07/28 08:27:33;;;;;;;1.88;0.90;;;25.80;64.30;;;29.06;44.04;101108.88;5208211;28;20391;-69
2022/07/28 08:30:06;;;;;;;4.45;1.00;;;26.10;62.30;;;29.70;42.19;101101.06;5207758;28;20383;-68
2022/07/28 08:32:38;;;;;;;1.52;0.85;;;26.50;61.10;;;30.07;42.63;101107.63;5208035;28;20136;-68
2022/07/28 08:35:11;;;;;;;1.55;0.70;;;26.70;61.40;;;30.92;41.71;101111.19;5208148;28;20295;-70
2022/07/28 08:37:43;;;;;;;2.30;0.70;;;27.20;60.90;;;31.85;40.07;101099.66;5207932;28;20076;-70
2022/07/28 08:40:15;;;;;;;2.17;0.80;;;27.70;59.80;;;32.65;38.25;101106.44;5208199;28;20575;-67
2022/07/28 08:42:56;;;;;;;1.77;0.70;;;28.20;58.30;;;33.57;36.72;101104.19;5207831;28;20052;-66
2022/07/28 08:45:30;;;;;;;1.52;0.50;;;28.90;56.60;;;34.33;35.94;101101.59;5207918;28;20128;-68
2022/07/28 08:48:04;;;;;;;1.65;0.73;;;29.70;55.30;;;34.94;35.03;101098.78;5207552;28;20061;-69
2022/07/28 08:50:38;;;;;;;2.60;0.70;;;30.30;53.90;;;35.54;34.61;101108.59;5207705;28;20132;-65
2022/07/28 08:53:11;;;;;;;2.53;0.70;;;31.00;53.40;;;35.92;33.86;101099.78;5207845;28;20545;-63
2022/07/28 08:55:44;;;;;;;3.05;0.90;;;31.50;52.20;;;36.31;32.82;101098.94;5207661;28;20045;-64
2022/07/28 08:58:18;;;;;;;1.75;0.65;;;31.90;50.70;;;36.55;32.40;101101.84;5207204;28;20136;-64
2022/07/28 09:00:50;;;;;;;2.33;0.65;;;32.20;49.90;;;36.78;32.22;101103.84;5207757;28;20139;-64
2022/07/28 09:03:23;;;;;;;2.20;0.70;;;32.50;49.00;;;37.06;31.61;101102.78;5207378;28;20040;-63
2022/07/28 09:05:56;;;;;;;1.60;0.65;;;32.70;48.60;;;37.40;31.85;101101.22;5206664;28;20069;-63
2022/07/28 09:08:29;;;;;;;1.23;0.60;;;33.10;48.50;;;37.23;30.86;101101.53;5203633;28;20044;-64
2022/07/28 09:11:01;;;;;;;2.45;0.60;;;33.00;47.10;;;37.01;31.16;101093.22;5207260;28;20406;-65
2022/07/28 09:13:34;;;;;;;1.08;0.47;;;33.00;46.80;;;37.12;31.01;101096.03;5207255;28;20041;-66
2022/07/28 09:16:07;;;;;;;1.85;0.65;;;33.20;46.50;;;37.20;30.60;101090.91;5199855;28;20045;-66
2022/07/28 09:18:39;;;;;;;1.83;0.70;;;33.30;46.20;;;37.02;30.46;101089.50;5206847;28;20056;-65
2022/07/28 09:21:14;;;;;;;1.45;0.50;;;33.20;46.10;;;36.86;30.99;101087.88;5198012;28;20056;-65
2022/07/28 09:23:49;;;;;;;3.03;0.70;;;33.20;46.40;;;36.63;31.99;101084.03;5207019;28;20041;-69
2022/07/28 09:26:22;;;;;;;1.83;0.80;;;33.10;47.30;;;36.31;32.38;101072.66;5207085;28;20465;-70
2022/07/28 09:28:59;;;;;;;2.63;0.60;;;32.90;47.20;;;35.63;31.95;101066.44;5206979;28;20049;-70
2022/07/28 09:31:31;;;;;;;2.20;0.60;;;32.60;46.50;;;34.77;32.26;101070.03;5206925;28;20045;-71
2022/07/28 09:34:05;;;;;;;1.83;0.60;;;32.30;46.30;;;33.99;32.57;101066.63;5204962;28;20050;-70
2022/07/28 09:36:40;;;;;;;3.72;0.80;;;31.90;46.50;;;33.25;33.75;101065.44;5207146;28;20045;-69
2022/07/28 09:39:29;;;;;;;1.17;0.60;;;31.50;47.10;;;32.51;34.85;101060.41;5205588;28;20053;-66
2022/07/28 09:42:01;;;;;;;3.38;0.70;;;31.00;47.60;;;31.87;35.96;101067.22;5206795;28;20049;-68
2022/07/28 09:44:35;;;;;;;2.50;0.80;;;30.50;48.50;;;31.43;37.04;101056.78;5205154;28;20116;-70
2022/07/28 09:47:23;;;;;;;1.02;0.50;;;30.10;49.30;;;31.12;37.55;101061.84;5206820;28;20045;-69
2022/07/28 09:49:55;;;;;;;1.55;0.77;;;29.90;50.00;;;30.58;37.32;101064.22;5206589;28;20037;-69
2022/07/28 09:52:29;;;;;;;1.17;0.70;;;29.50;49.20;;;30.41;38.22;101056.03;5206169;28;20045;-68
2022/07/28 09:55:04;;;;;;;1.42;0.70;;;29.40;50.30;;;30.25;37.97;101062.03;5206900;28;20534;-70
2022/07/28 09:57:40;;;;;;;1.38;0.60;;;29.20;50.20;;;30.10;38.02;101045.72;5206521;28;20051;-70
2022/07/28 10:00:27;;;;;;;1.92;0.90;;;29.00;50.20;;;29.91;38.12;101035.69;5206795;28;20047;-69
2022/07/28 10:02:59;;;;;;;3.47;0.90;;;28.90;50.30;;;29.65;38.17;101033.22;5205306;28;20049;-69
2022/07/28 10:05:40;;;;;;;1.00;0.60;;;28.70;50.10;;;29.53;38.58;101050.69;5206333;28;20048;-70
2022/07/28 10:08:12;;;;;;;0.80;0.63;;;28.60;50.30;;;29.50;38.97;101052.59;5206213;28;20516;-70
2022/07/28 10:10:59;;;;;;;2.45;0.80;;;28.50;50.70;;;29.37;38.07;101039.66;5206124;28;20068;-70
2022/07/28 10:13:31;;;;;;;0.85;0.60;;;28.50;50.00;;;29.35;38.12;101035.28;5206015;28;20034;-70
2022/07/28 10:16:12;;;;;;;1.45;0.60;;;28.40;50.10;;;29.34;38.83;101031.72;5206196;28;20569;-70
2022/07/28 10:18:44;;;;;;;;;;;28.40;50.80;;;29.30;39.29;101027.41;5206291;28;20067;-71
2022/07/28 10:21:19;;;;;;;1.40;0.73;;;28.30;51.20;;;29.23;39.65;101014.28;5219829;23;19956;-67
2022/07/28 10:23:54;;;;;;;1.15;0.50;;;28.20;51.40;;;29.23;39.65;101019.66;5195072;28;20054;-75
2022/07/28 10:26:31;;;;;;;1.35;0.50;;;28.20;51.50;;;29.08;39.31;101010.38;5173426;28;20045;-70
2022/07/28 10:29:06;;;;;;;0.93;0.70;;;28.10;50.80;;;29.05;39.73;101021.25;5165038;28;20061;-71
2022/07/28 10:31:47;;;;;;;0.65;0.63;;;28.10;51.40;;;28.85;39.30;101011.22;5165057;28;20057;-71
2022/07/28 10:34:23;;;;;;;2.00;0.82;;;27.90;51.00;;;28.93;39.00;100999.28;5165103;28;20038;-69
2022/07/28 10:36:56;;;;;;;3.33;0.80;;;27.90;50.90;;;28.98;38.14;100993.75;5165251;28;20084;-69
2022/07/28 10:39:37;;;;;;;2.30;0.80;;;28.00;50.20;;;29.10;38.57;100998.66;5170475;28;20117;-69
2022/07/28 10:42:11;;;;;;;3.13;0.80;;;28.10;50.60;;;29.18;38.82;101001.03;5167351;28;20533;-69